Pagina principale
METAR-TAF:

METAR-TAF

Aeroporti :

Aeroporto di Taranto-Grottaglie

Taranto, Italia

latitudine: 40-31N, longitudine: 017-24E, altezza: 64 m

Osservazione

Il bollettino è stato emesso 1 ora e 12 minuti fa, alle 08:50 UTC
Vento 6 kt da est/sud-est, variando fra est e sud
Temperature 23°C
Umidità 65%
Pressione 1018 hPa
Visibilità 10 km o più
nessuna nube inferiore a 1500 m e nessun cumulonembo

METAR: LIBG 170850Z 12006KT 090V180 CAVOK 23/16 Q1018

Ora: 12:02 (10:02 UTC)

Previsione

Il bollettino è stato emesso 2 ore e 2 minuti fa, alle 08:00 UTC
Previsione valida dal 17 alle 09 UTC al 17 alle 18 UTC
Vento 6 kt da direzioni variabili
Visibilità 10 km o più
Nubi sparse ad un'altezza di 3000 ft
Temporaneamente
dal 17 alle 09 UTC al 17 alle 15 UTC
Visibilità: 4000 m
temporale, pioggia

TAF: LIBG 170800Z 1709/1718 VRB06KT 9999 SCT030 TEMPO 1709/1715 4000 TSRA

Osservazioni e previsioni meteorologiche di più di 4000 aeroporti (messaggi METAR e TAF).

Le stazioni disponibili sono rappresentate dai dischi gialli e rossi sulla carta.

Puntare il mouse per vedere il nome della stazione.

Clicca sopra per visualizzare le osservazioni e previsioni meteorologiche.

Per cambiare la mappa : fare clic sui pulsanti verdi con una croce nera per ingrandire, il pulsante verde con un trattino per diminuire, o sulla freccia verde per le mappe adiacenti.


METAR-TAF: